createdAt,value
2022-09-13T00:01:27.339Z,101115.50
2022-09-13T00:04:32.779Z,101109.63
2022-09-13T00:07:39.439Z,101105.81
2022-09-13T00:10:46.535Z,101102.47
2022-09-13T00:13:52.445Z,101107.59
2022-09-13T00:16:57.807Z,101104.03
2022-09-13T00:20:03.759Z,101104.16
2022-09-13T00:23:12.422Z,101100.69
2022-09-13T00:26:21.539Z,101100.69
2022-09-13T00:29:27.454Z,101092.06
2022-09-13T00:32:32.793Z,101087.59
2022-09-13T00:35:38.573Z,101093.63
2022-09-13T00:38:45.544Z,101086.16
2022-09-13T00:41:50.986Z,101073.19
2022-09-13T00:44:59.320Z,101058.53
2022-09-13T00:48:07.428Z,101054.22
2022-09-13T00:51:13.730Z,101050.81
2022-09-13T00:54:24.327Z,101057.09
2022-09-13T00:57:31.193Z,101051.72
2022-09-13T01:00:37.020Z,101049.81
2022-09-13T01:03:44.826Z,101047.25
2022-09-13T01:06:51.359Z,101038.69
2022-09-13T01:09:58.452Z,101026.84
2022-09-13T01:13:14.931Z,101026.69
2022-09-13T01:16:20.447Z,101024.03
2022-09-13T01:19:26.048Z,101018.28
2022-09-13T01:23:23.530Z,101012.25
2022-09-13T01:27:25.376Z,100998.56
2022-09-13T01:30:35.691Z,100993.47
2022-09-13T01:33:55.786Z,100993.31
2022-09-13T01:37:40.114Z,100984.09
2022-09-13T01:40:57.541Z,100983.19
2022-09-13T01:44:12.680Z,100973.81
2022-09-13T01:47:27.118Z,100968.66
2022-09-13T01:50:40.770Z,100959.22
2022-09-13T01:54:00.170Z,100961.69
2022-09-13T01:57:12.178Z,100953.13
2022-09-13T02:00:18.856Z,100940.09
2022-09-13T02:03:29.794Z,100936.94
2022-09-13T02:06:38.141Z,100923.34
2022-09-13T02:09:46.297Z,100919.06
2022-09-13T02:12:52.887Z,100909.44
2022-09-13T02:16:03.638Z,100908.59
2022-09-13T02:19:15.530Z,100905.00
2022-09-13T02:22:29.081Z,100904.16
2022-09-13T02:25:35.850Z,100900.63
2022-09-13T02:28:47.183Z,100884.38
2022-09-13T02:31:58.407Z,100875.88
2022-09-13T02:35:10.527Z,100883.47
2022-09-13T02:38:21.847Z,100868.16
2022-09-13T02:41:35.663Z,100868.66
2022-09-13T02:44:44.822Z,100861.72
2022-09-13T02:47:57.965Z,100860.19
2022-09-13T02:51:11.675Z,100851.31
2022-09-13T02:54:25.827Z,100840.97
2022-09-13T02:57:35.527Z,100824.75
2022-09-13T03:00:41.126Z,100826.44
2022-09-13T03:03:46.643Z,100828.94
2022-09-13T03:06:53.513Z,100814.06
2022-09-13T03:10:06.305Z,100809.06
2022-09-13T03:13:47.161Z,100805.66
2022-09-13T03:17:15.655Z,100798.38
2022-09-13T03:20:30.362Z,100798.56
2022-09-13T03:23:52.040Z,100788.00
2022-09-13T03:27:11.027Z,100784.59
2022-09-13T03:30:17.971Z,100774.13
2022-09-13T03:33:32.473Z,100760.56
2022-09-13T03:36:43.357Z,100748.59
2022-09-13T03:39:54.859Z,100752.53
2022-09-13T03:43:04.361Z,100754.09
2022-09-13T03:46:13.456Z,100743.69
2022-09-13T03:49:20.689Z,100743.63
2022-09-13T03:52:26.566Z,100733.06
2022-09-13T03:55:34.532Z,100724.31
2022-09-13T03:58:39.946Z,100727.66
2022-09-13T04:01:45.416Z,100719.69
2022-09-13T04:04:51.461Z,100707.44
2022-09-13T04:07:57.024Z,100698.75
2022-09-13T04:11:03.663Z,100696.16
2022-09-13T04:14:09.082Z,100695.94
2022-09-13T04:17:15.745Z,100687.38
2022-09-13T04:20:21.283Z,100685.41
2022-09-13T04:23:28.542Z,100678.38
2022-09-13T04:26:35.991Z,100676.66
2022-09-13T04:29:41.847Z,100660.38
2022-09-13T04:32:47.033Z,100662.88
2022-09-13T04:35:59.121Z,100661.06
2022-09-13T04:39:04.702Z,100657.59
2022-09-13T04:42:12.678Z,100657.25
2022-09-13T04:45:18.178Z,100653.78
2022-09-13T04:48:23.421Z,100640.91
2022-09-13T04:51:28.859Z,100646.00
2022-09-13T04:54:34.457Z,100639.72
2022-09-13T04:57:41.155Z,100635.41
2022-09-13T05:00:46.430Z,100634.22
2022-09-13T05:03:53.526Z,100626.28
2022-09-13T05:06:59.239Z,100621.22
2022-09-13T05:10:04.770Z,100624.31
2022-09-13T05:13:13.773Z,100619.19
2022-09-13T05:16:19.108Z,100610.63
2022-09-13T05:19:24.831Z,100618.94
2022-09-13T05:22:30.665Z,100588.69
2022-09-13T05:25:36.066Z,100609.22
2022-09-13T05:28:42.701Z,100604.16
2022-09-13T05:31:48.547Z,100590.28
2022-09-13T05:34:54.280Z,100592.94
2022-09-13T05:37:59.609Z,100578.25
2022-09-13T05:41:06.845Z,100579.59
2022-09-13T05:44:15.836Z,100580.59
2022-09-13T05:47:21.176Z,100571.94
2022-09-13T05:50:54.169Z,100573.38
2022-09-13T05:53:54.760Z,100561.22
2022-09-13T05:57:00.229Z,100563.88
2022-09-13T06:00:08.526Z,100550.19
2022-09-13T06:03:18.611Z,100548.59
2022-09-13T06:06:24.920Z,100547.31
2022-09-13T06:09:31.071Z,100538.75
2022-09-13T06:12:36.634Z,100539.44
2022-09-13T06:15:43.546Z,100530.31
2022-09-13T06:18:48.968Z,100522.22
2022-09-13T06:21:54.528Z,100524.13
2022-09-13T06:24:59.971Z,100504.94
2022-09-13T06:28:05.780Z,100515.25
2022-09-13T06:31:15.752Z,100500.03
2022-09-13T06:34:21.419Z,100495.53
2022-09-13T06:37:26.596Z,100501.06
2022-09-13T06:40:32.698Z,100490.41
2022-09-13T06:43:38.451Z,100486.44
2022-09-13T06:46:45.385Z,100486.59
2022-09-13T06:49:50.814Z,100479.97
2022-09-13T06:52:58.156Z,100468.25
2022-09-13T06:56:05.954Z,100469.91
2022-09-13T06:59:12.283Z,100480.38
2022-09-13T07:02:19.106Z,100469.81
2022-09-13T07:05:24.396Z,100455.94
2022-09-13T07:08:29.713Z,100451.47
2022-09-13T07:11:37.713Z,100454.19
2022-09-13T07:14:42.987Z,100449.06
2022-09-13T07:17:50.033Z,100453.38
2022-09-13T07:21:02.390Z,100437.09
2022-09-13T07:24:08.353Z,100437.91
2022-09-13T07:27:14.931Z,100437.56
2022-09-13T07:30:20.347Z,100441.47
2022-09-13T07:33:27.525Z,100434.00
2022-09-13T07:36:37.364Z,100428.03
2022-09-13T07:39:42.741Z,100422.13
2022-09-13T07:42:48.209Z,100420.66
2022-09-13T07:46:00.846Z,100417.03
2022-09-13T07:49:08.511Z,100420.13
2022-09-13T07:52:13.760Z,100406.84
2022-09-13T07:55:19.098Z,100411.81
2022-09-13T07:58:24.377Z,100404.28
2022-09-13T08:01:32.054Z,100403.84
2022-09-13T08:04:38.959Z,100399.22
2022-09-13T08:07:44.158Z,100395.53
2022-09-13T08:10:49.687Z,100403.19
2022-09-13T08:13:56.049Z,100393.38
2022-09-13T08:17:02.068Z,100384.06
2022-09-13T08:20:10.569Z,100384.31
2022-09-13T08:23:16.858Z,100379.25
2022-09-13T08:26:22.758Z,100380.28
2022-09-13T08:29:28.002Z,100367.88
2022-09-13T08:32:33.633Z,100371.28
2022-09-13T08:35:40.485Z,100366.22
2022-09-13T08:38:48.545Z,100360.22
2022-09-13T08:42:13.117Z,100359.16
2022-09-13T08:45:18.679Z,100356.81
2022-09-13T08:48:28.111Z,100351.34
2022-09-13T08:51:39.313Z,100358.56
2022-09-13T08:54:44.801Z,100345.84
2022-09-13T08:57:57.107Z,100330.50
2022-09-13T09:01:07.756Z,100317.97
2022-09-13T09:04:28.830Z,100324.13
2022-09-13T09:07:43.709Z,100307.50
2022-09-13T09:10:53.194Z,100300.19
2022-09-13T09:14:06.733Z,100292.63
2022-09-13T09:17:17.635Z,100299.19
2022-09-13T09:20:32.322Z,100296.88
2022-09-13T09:23:42.562Z,100289.31
2022-09-13T09:26:48.006Z,100284.84
2022-09-13T09:29:58.204Z,100267.25
2022-09-13T09:33:34.155Z,100260.00
2022-09-13T09:36:43.453Z,100242.34
2022-09-13T09:39:51.179Z,100250.53
2022-09-13T09:42:57.053Z,100238.66
2022-09-13T09:46:04.421Z,100230.78
2022-09-13T09:49:35.998Z,100235.50
2022-09-13T09:52:50.785Z,100222.94
2022-09-13T09:56:02.885Z,100221.94
2022-09-13T09:59:28.401Z,100211.44
2022-09-13T10:02:34.425Z,100205.59
2022-09-13T10:05:40.033Z,100192.53
2022-09-13T10:08:55.057Z,100178.84
2022-09-13T10:12:01.802Z,100185.50
2022-09-13T10:15:18.019Z,100187.25
2022-09-13T10:18:43.443Z,100188.38
2022-09-13T10:22:03.059Z,100161.06
2022-09-13T10:25:24.796Z,100166.13
2022-09-13T10:28:32.937Z,100159.25
2022-09-13T10:31:40.130Z,100157.22
2022-09-13T10:34:47.905Z,100147.41
2022-09-13T10:37:54.510Z,100142.16
2022-09-13T10:41:02.641Z,100131.94
2022-09-13T10:44:28.021Z,100127.63
2022-09-13T10:47:36.369Z,100117.91
2022-09-13T10:50:41.807Z,100107.34
2022-09-13T10:53:47.496Z,100095.66
2022-09-13T10:56:52.973Z,100083.50
2022-09-13T11:00:00.451Z,100070.41
2022-09-13T11:03:25.951Z,100062.84
2022-09-13T11:06:37.158Z,100055.66
2022-09-13T11:09:49.127Z,100052.56
2022-09-13T11:13:02.839Z,100037.72
2022-09-13T11:16:28.927Z,100047.94
2022-09-13T11:20:11.378Z,100041.03
2022-09-13T11:23:50.564Z,100049.25
2022-09-13T11:27:03.478Z,100033.78
2022-09-13T11:30:17.489Z,100039.69
2022-09-13T11:33:41.762Z,100021.28
2022-09-13T11:37:03.915Z,100017.56
2022-09-13T11:40:33.339Z,100010.31
2022-09-13T11:43:56.310Z,100000.41
2022-09-13T11:47:09.834Z,99983.41
2022-09-13T11:50:28.637Z,100000.81
2022-09-13T11:53:59.883Z,99985.97
2022-09-13T11:57:10.066Z,99985.19
2022-09-13T12:00:23.766Z,99988.91
2022-09-13T12:03:34.899Z,99978.75
2022-09-13T12:06:43.555Z,99977.81
2022-09-13T12:09:58.831Z,99979.84
2022-09-13T12:13:05.306Z,99968.91
2022-09-13T12:16:16.376Z,99970.69
2022-09-13T12:19:25.218Z,99970.69
2022-09-13T12:22:35.531Z,99957.16
2022-09-13T12:25:47.886Z,99952.28
2022-09-13T12:28:56.829Z,99952.84
2022-09-13T12:32:06.494Z,99953.53
2022-09-13T12:35:21.223Z,99935.41
2022-09-13T12:38:59.146Z,99922.31
2022-09-13T12:42:45.493Z,99923.53
2022-09-13T12:46:10.685Z,99916.66
2022-09-13T12:49:29.475Z,99912.41
2022-09-13T12:52:42.367Z,99914.34
2022-09-13T12:56:03.900Z,99903.75
2022-09-13T12:59:57.396Z,99889.13
2022-09-13T13:03:11.713Z,99877.28
2022-09-13T13:06:29.661Z,99864.69
2022-09-13T13:09:42.430Z,99872.13
2022-09-13T13:12:49.166Z,99862.19
2022-09-13T13:16:25.330Z,99853.31
2022-09-13T13:19:33.730Z,99848.06
2022-09-13T13:22:52.797Z,99841.53
2022-09-13T13:26:46.106Z,99835.38
2022-09-13T13:30:43.136Z,99821.22
2022-09-13T13:33:50.369Z,99821.50
2022-09-13T13:37:03.534Z,99822.44
2022-09-13T13:40:29.254Z,99827.19
2022-09-13T13:43:35.868Z,99819.00
2022-09-13T13:46:43.078Z,99819.28
2022-09-13T13:49:53.605Z,99790.41
2022-09-13T13:53:06.232Z,99777.16
2022-09-13T13:56:32.495Z,99784.19
2022-09-13T13:59:38.358Z,99772.13
2022-09-13T14:02:53.379Z,99772.56
2022-09-13T14:06:10.298Z,99782.84
2022-09-13T14:09:33.395Z,99764.41
2022-09-13T14:13:05.713Z,99768.66
2022-09-13T14:16:29.346Z,99773.38
2022-09-13T14:19:43.985Z,99766.56
2022-09-13T14:22:49.853Z,99758.31
2022-09-13T14:26:00.803Z,99757.38
2022-09-13T14:29:10.026Z,99753.47
2022-09-13T14:32:22.175Z,99754.81
2022-09-13T14:35:32.550Z,99745.34
2022-09-13T14:38:38.450Z,99747.59
2022-09-13T14:41:43.641Z,99752.53
2022-09-13T14:44:49.552Z,99752.09
2022-09-13T14:47:58.270Z,99756.03
2022-09-13T14:51:13.592Z,99762.25
2022-09-13T14:54:22.899Z,99756.34
2022-09-13T14:57:33.918Z,99749.84
2022-09-13T15:00:53.499Z,99751.28
2022-09-13T15:04:01.164Z,99750.59
2022-09-13T15:07:22.288Z,99753.34
2022-09-13T15:10:31.185Z,99746.41
2022-09-13T15:13:37.912Z,99741.19
2022-09-13T15:16:50.141Z,99749.84
2022-09-13T15:20:13.923Z,99751.41
2022-09-13T15:23:24.931Z,99748.09
2022-09-13T15:26:30.207Z,99748.81
2022-09-13T15:29:37.629Z,99749.34
2022-09-13T15:32:45.166Z,99743.34
2022-09-13T15:35:50.786Z,99750.75
2022-09-13T15:39:17.931Z,99759.97
2022-09-13T15:42:23.246Z,99747.34
2022-09-13T15:45:28.506Z,99745.13
2022-09-13T15:48:36.357Z,99737.03
2022-09-13T15:51:44.578Z,99735.94
2022-09-13T15:54:52.381Z,99738.50
2022-09-13T15:57:57.724Z,99738.31
2022-09-13T16:01:03.941Z,99739.72
2022-09-13T16:04:09.530Z,99727.88
2022-09-13T16:07:14.965Z,99730.47
2022-09-13T16:10:23.729Z,99735.19
2022-09-13T16:13:29.065Z,99735.41
2022-09-13T16:16:34.662Z,99731.63
2022-09-13T16:19:45.447Z,99737.81
2022-09-13T16:22:50.933Z,99726.56
2022-09-13T16:25:59.371Z,99727.59
2022-09-13T16:29:05.061Z,99725.94
2022-09-13T16:32:12.795Z,99716.56
2022-09-13T16:35:18.842Z,99716.66
2022-09-13T16:38:24.270Z,99715.22
2022-09-13T16:41:31.136Z,99712.34
2022-09-13T16:44:36.770Z,99712.22
2022-09-13T16:47:42.374Z,99709.88
2022-09-13T16:50:47.629Z,99721.94
2022-09-13T16:53:54.373Z,99708.50
2022-09-13T16:57:01.349Z,99708.72
2022-09-13T17:00:11.522Z,99701.19
2022-09-13T17:03:16.894Z,99703.03
2022-09-13T17:06:24.079Z,99699.13
2022-09-13T17:09:30.853Z,99691.50
2022-09-13T17:12:37.244Z,99695.63
2022-09-13T17:15:42.494Z,99691.50
2022-09-13T17:18:47.860Z,99685.53
2022-09-13T17:21:57.424Z,99682.66
2022-09-13T17:25:02.658Z,99673.78
2022-09-13T17:28:09.339Z,99666.56
2022-09-13T17:31:14.927Z,99668.13
2022-09-13T17:34:20.418Z,99653.16
2022-09-13T17:37:25.833Z,99657.78
2022-09-13T17:40:32.119Z,99651.22
2022-09-13T17:43:39.462Z,99646.06
2022-09-13T17:46:45.104Z,99637.31
2022-09-13T17:49:50.133Z,99634.59
2022-09-13T17:52:55.490Z,99631.94
2022-09-13T17:56:00.570Z,99630.28
2022-09-13T17:59:10.391Z,99638.69
2022-09-13T18:02:15.638Z,99634.88
2022-09-13T18:05:21.138Z,99630.53
2022-09-13T18:08:26.902Z,99623.66
2022-09-13T18:11:32.116Z,99627.88
2022-09-13T18:14:38.602Z,99618.78
2022-09-13T18:17:43.826Z,99613.72
2022-09-13T18:20:49.038Z,99611.69
2022-09-13T18:23:58.268Z,99609.00
2022-09-13T18:27:03.644Z,99606.09
2022-09-13T18:30:11.739Z,99610.59
2022-09-13T18:33:20.984Z,99598.06
2022-09-13T18:36:27.157Z,99597.34
2022-09-13T18:39:32.140Z,99598.06
2022-09-13T18:42:40.989Z,99588.88
2022-09-13T18:45:56.222Z,99594.31
2022-09-13T18:49:03.149Z,99594.22
2022-09-13T18:52:08.293Z,99580.25
2022-09-13T18:55:13.818Z,99591.84
2022-09-13T18:58:19.170Z,99590.81
2022-09-13T19:01:28.068Z,99594.31
2022-09-13T19:04:36.157Z,99592.28
2022-09-13T19:07:42.216Z,99606.38
2022-09-13T19:10:47.479Z,99598.44
2022-09-13T19:13:53.091Z,99598.25
2022-09-13T19:17:02.983Z,99614.25
2022-09-13T19:20:09.814Z,99587.88
2022-09-13T19:23:16.512Z,99559.84
2022-09-13T19:26:24.539Z,99571.50
2022-09-13T19:29:29.552Z,99568.44
2022-09-13T19:32:36.658Z,99563.25
2022-09-13T19:35:41.949Z,99552.84
2022-09-13T19:38:47.384Z,99556.84
2022-09-13T19:41:53.578Z,99547.59
2022-09-13T19:44:58.856Z,99542.13
2022-09-13T19:48:37.741Z,99551.50
2022-09-13T19:51:33.887Z,99552.53
2022-09-13T19:54:38.870Z,99553.25
2022-09-13T19:57:45.118Z,99555.81
2022-09-13T20:00:50.398Z,99547.81
2022-09-13T20:03:58.869Z,99533.56
2022-09-13T20:07:03.838Z,99532.16
2022-09-13T20:10:10.102Z,99527.31
2022-09-13T20:13:15.667Z,99527.41
2022-09-13T20:16:22.931Z,99522.28
2022-09-13T20:19:41.586Z,99518.78
2022-09-13T20:22:47.969Z,99508.69
2022-09-13T20:25:52.910Z,99499.03
2022-09-13T20:29:05.121Z,99499.41
2022-09-13T20:32:11.324Z,99499.22
2022-09-13T20:35:18.283Z,99493.25
2022-09-13T20:38:23.784Z,99497.97
2022-09-13T20:41:30.209Z,99486.66
2022-09-13T20:44:35.138Z,99481.41
2022-09-13T20:47:40.381Z,99482.22
2022-09-13T20:50:54.962Z,99478.63
2022-09-13T20:54:01.126Z,99468.34
2022-09-13T20:57:06.720Z,99470.47
2022-09-13T21:00:14.040Z,99472.75
2022-09-13T21:03:19.587Z,99474.91
2022-09-13T21:06:28.791Z,99471.91
2022-09-13T21:09:32.777Z,99464.03
2022-09-13T21:12:38.579Z,99458.88
2022-09-13T21:15:43.837Z,99456.13
2022-09-13T21:18:49.870Z,99459.72
2022-09-13T21:21:56.224Z,99458.97
2022-09-13T21:25:01.439Z,99442.34
2022-09-13T21:28:06.604Z,99447.50
2022-09-13T21:31:19.558Z,99438.75
2022-09-13T21:34:27.372Z,99436.19
2022-09-13T21:37:34.055Z,99443.38
2022-09-13T21:40:39.314Z,99441.22
2022-09-13T21:43:45.211Z,99444.69
2022-09-13T21:46:51.464Z,99448.94
2022-09-13T21:49:56.739Z,99442.97
2022-09-13T21:53:03.398Z,99442.41
2022-09-13T21:56:12.018Z,99434.72
2022-09-13T21:59:18.519Z,99437.47
2022-09-13T22:02:23.861Z,99432.25
2022-09-13T22:05:29.595Z,99434.31
2022-09-13T22:08:39.345Z,99424.50
2022-09-13T22:11:46.606Z,99427.06
2022-09-13T22:14:51.878Z,99428.13
2022-09-13T22:17:57.165Z,99430.50
2022-09-13T22:21:15.398Z,99430.59
2022-09-13T22:24:24.123Z,99420.94
2022-09-13T22:27:29.558Z,99417.34
2022-09-13T22:30:36.429Z,99413.69
2022-09-13T22:33:42.050Z,99409.72
2022-09-13T22:36:47.423Z,99405.31
2022-09-13T22:39:54.329Z,99395.44
2022-09-13T22:42:59.541Z,99397.88
2022-09-13T22:46:07.502Z,99408.06
2022-09-13T22:49:14.726Z,99402.00
2022-09-13T22:52:20.523Z,99396.44
2022-09-13T22:55:27.166Z,99398.09
2022-09-13T22:58:32.750Z,99393.13
2022-09-13T23:01:38.354Z,99390.94
2022-09-13T23:04:43.682Z,99387.16
2022-09-13T23:07:48.982Z,99386.16
2022-09-13T23:10:56.075Z,99388.59
2022-09-13T23:14:03.183Z,99372.13
2022-09-13T23:17:08.709Z,99383.25
2022-09-13T23:20:14.815Z,99367.41
2022-09-13T23:23:20.674Z,99367.34
2022-09-13T23:26:27.664Z,99362.94
2022-09-13T23:29:32.963Z,99367.88
2022-09-13T23:32:38.254Z,99356.25
2022-09-13T23:35:45.051Z,99357.25
2022-09-13T23:38:52.745Z,99350.28
2022-09-13T23:41:59.439Z,99354.31
2022-09-13T23:45:05.260Z,99350.19
2022-09-13T23:48:15.747Z,99349.88
2022-09-13T23:51:24.263Z,99345.88
2022-09-13T23:54:29.570Z,99346.59
2022-09-13T23:57:36.191Z,99335.97
